Time;durP1;ratioP1;P1;durP2;ratioP2;P2;SDS_P1;SDS_P2;PMS_P1;PMS_P2;Temp;Humidity;BMP_temperature;BMP_pressure;BME280_temperature;BME280_humidity;BME280_pressure;Samples;Min_cycle;Max_cycle;Signal;HPM_P1;HPM_P2
2022/01/05 00:00:18;;;;;;;3.42;3.12;;;;;;;19.19;41.96;96832.51;1794737;79;21116;-63
2022/01/05 00:02:47;;;;;;;3.05;2.77;;;;;;;19.26;41.79;96825.67;1787646;78;20979;-63
2022/01/05 00:05:13;;;;;;;3.83;3.17;;;;;;;19.25;41.81;96826.75;1801118;78;21154;-62
2022/01/05 00:07:40;;;;;;;3.40;3.10;;;;;;;19.25;41.82;96828.64;1756439;80;20982;-62
2022/01/05 00:10:08;;;;;;;3.37;3.08;;;;;;;19.16;41.95;96831.20;1725997;82;21019;-62
2022/01/05 00:12:34;;;;;;;4.03;3.58;;;;;;;19.15;41.98;96825.54;1799660;78;21017;-62
2022/01/05 00:15:00;;;;;;;3.45;3.15;;;;;;;19.20;41.93;96830.05;1797454;78;20966;-62
2022/01/05 00:17:27;;;;;;;3.58;3.27;;;;;;;19.16;42.00;96816.91;1795723;78;21086;-63
2022/01/05 00:19:55;;;;;;;4.15;3.17;;;;;;;19.16;41.97;96817.72;1795702;78;47652;-62
2022/01/05 00:22:21;;;;;;;3.60;3.30;;;;;;;19.17;41.92;96820.66;1759601;80;21030;-62
2022/01/05 00:24:48;;;;;;;3.35;2.92;;;;;;;19.25;41.78;96820.55;1758787;80;20942;-63
2022/01/05 00:27:14;;;;;;;3.33;3.02;;;;;;;19.28;41.67;96819.98;1795798;78;21055;-64
2022/01/05 00:29:41;;;;;;;3.27;2.98;;;;;;;19.28;41.66;96818.09;1792779;79;21175;-63
2022/01/05 00:32:08;;;;;;;3.00;2.80;;;;;;;19.38;41.50;96817.98;1795658;79;20997;-62
2022/01/05 00:34:37;;;;;;;3.42;3.12;;;;;;;19.44;41.43;96814.68;1785664;78;20950;-63
2022/01/05 00:37:04;;;;;;;2.77;2.58;;;;;;;19.43;41.40;96815.77;1791027;79;21931;-62
2022/01/05 00:39:31;;;;;;;3.10;2.83;;;;;;;19.39;41.49;96819.61;1786221;79;20978;-63
2022/01/05 00:41:57;;;;;;;4.47;2.95;;;;;;;19.40;41.45;96825.23;1788049;79;21144;-62
2022/01/05 00:44:24;;;;;;;3.33;3.02;;;;;;;19.43;41.38;96826.01;1799007;79;21497;-62
2022/01/05 00:46:50;;;;;;;3.58;3.27;;;;;;;19.50;41.25;96827.79;1795588;79;20947;-61
2022/01/05 00:49:17;;;;;;;3.52;3.17;;;;;;;19.56;41.17;96820.44;1792498;79;21459;-62
2022/01/05 00:51:43;;;;;;;3.98;3.52;;;;;;;19.56;41.23;96813.16;1782215;79;20982;-63
2022/01/05 00:54:10;;;;;;;3.45;3.15;;;;;;;19.59;41.27;96809.88;1798228;79;21824;-62
2022/01/05 00:56:36;;;;;;;3.35;3.05;;;;;;;19.65;41.21;96810.61;1792123;79;20880;-63
2022/01/05 00:59:04;;;;;;;3.15;2.85;;;;;;;19.64;41.27;96803.60;1799603;79;20887;-62
2022/01/05 01:01:30;;;;;;;3.83;3.52;;;;;;;19.62;41.28;96819.28;1785320;79;21002;-62
2022/01/05 01:03:57;;;;;;;3.65;3.35;;;;;;;19.57;41.38;96806.68;1795971;79;21027;-63
2022/01/05 01:06:23;;;;;;;5.40;4.72;;;;;;;19.58;41.36;96800.17;1794655;79;21139;-62
2022/01/05 01:08:50;;;;;;;4.22;3.50;;;;;;;19.65;41.27;96793.89;1786059;79;21048;-62
2022/01/05 01:11:16;;;;;;;4.75;3.75;;;;;;;19.69;41.22;96790.84;1796730;79;20891;-64
2022/01/05 01:13:44;;;;;;;3.50;3.30;;;;;;;19.78;41.08;96796.39;1793143;79;20996;-63
2022/01/05 01:16:11;;;;;;;3.20;2.90;;;;;;;19.81;40.98;96796.34;1788363;79;21556;-62
2022/01/05 01:18:38;;;;;;;3.95;3.62;;;;;;;19.83;40.91;96796.31;1794335;79;21937;-63
2022/01/05 01:21:05;;;;;;;3.60;3.30;;;;;;;19.82;40.90;96800.63;1794108;79;20919;-63
2022/01/05 01:23:31;;;;;;;4.30;3.87;;;;;;;19.88;40.87;96802.17;1781384;79;20994;-63
2022/01/05 01:25:58;;;;;;;4.00;3.60;;;;;;;19.95;40.75;96795.84;1755859;81;20956;-62
2022/01/05 01:28:24;;;;;;;4.55;4.15;;;;;;;20.03;40.60;96804.62;1739947;80;20996;-63
2022/01/05 01:30:50;;;;;;;3.87;3.58;;;;;;;20.06;40.53;96802.69;1766409;80;21140;-63
2022/01/05 01:33:18;;;;;;;4.25;3.92;;;;;;;20.20;40.31;96806.23;1757474;81;20899;-62
2022/01/05 01:35:46;;;;;;;4.87;4.37;;;;;;;20.25;40.18;96799.44;1708304;82;21019;-63
2022/01/05 01:38:12;;;;;;;4.42;4.03;;;;;;;20.23;40.16;96799.71;1781555;78;21111;-62
2022/01/05 01:40:39;;;;;;;5.17;4.65;;;;;;;20.22;40.19;96794.05;1787681;78;20907;-62
2022/01/05 01:43:06;;;;;;;4.45;4.05;;;;;;;20.15;40.30;96800.36;1800061;79;21131;-62
2022/01/05 01:45:34;;;;;;;5.20;4.70;;;;;;;20.37;40.07;96797.59;1791363;78;20996;-63
2022/01/05 01:48:00;;;;;;;9.75;4.90;;;;;;;20.40;39.99;96795.12;1785996;78;21417;-62
2022/01/05 01:50:27;;;;;;;5.20;4.50;;;;;;;20.44;39.96;96789.36;1789170;79;20996;-62
2022/01/05 01:52:53;;;;;;;4.62;4.20;;;;;;;20.45;40.00;96797.72;1778334;78;20971;-63
2022/01/05 01:55:20;;;;;;;5.03;4.53;;;;;;;20.47;40.03;96793.36;1790280;78;21832;-62
2022/01/05 01:57:47;;;;;;;5.03;4.53;;;;;;;20.51;39.99;96788.44;1779920;79;21483;-63
2022/01/05 02:00:14;;;;;;;11.48;7.85;;;;;;;20.56;39.94;96788.89;1789286;78;20902;-62
2022/01/05 02:02:44;;;;;;;9.50;8.23;;;;;;;20.52;39.98;96790.02;1789500;79;21045;-62
2022/01/05 02:05:11;;;;;;;7.33;5.87;;;;;;;20.56;39.96;96793.75;1792783;78;21509;-63
2022/01/05 02:07:38;;;;;;;8.25;6.37;;;;;;;20.59;39.93;96789.11;1792556;78;21101;-62
2022/01/05 02:10:07;;;;;;;5.28;4.78;;;;;;;20.60;39.95;96792.04;1792519;78;20891;-62
2022/01/05 02:12:33;;;;;;;6.08;4.65;;;;;;;20.61;39.94;96813.91;1790089;79;21019;-62
2022/01/05 02:14:59;;;;;;;5.00;4.47;;;;;;;20.64;39.98;96798.46;1777058;79;21065;-62
2022/01/05 02:17:45;;;;;;;5.20;4.80;;;;;;;20.72;39.88;96801.83;1778476;78;21070;-62
2022/01/05 02:19:59;;;;;;;5.47;4.87;;;;;;;20.68;40.00;96806.20;1790903;78;21122;-62
2022/01/05 02:22:26;;;;;;;4.92;4.53;;;;;;;20.75;39.93;96809.30;1786642;79;21546;-63
2022/01/05 02:24:53;;;;;;;5.65;5.03;;;;;;;20.85;39.83;96809.14;1743795;81;20932;-62
2022/01/05 02:27:20;;;;;;;5.75;5.15;;;;;;;20.94;39.77;96807.86;1752090;80;20990;-62
2022/01/05 02:29:46;;;;;;;6.10;5.50;;;;;;;20.96;39.67;96801.64;1727024;82;21523;-62
2022/01/05 02:32:12;;;;;;;5.87;5.37;;;;;;;20.97;39.69;96811.87;1725734;82;21560;-63
2022/01/05 02:34:40;;;;;;;5.03;4.50;;;;;;;21.18;39.40;96796.88;1745769;81;21046;-63
2022/01/05 02:37:07;;;;;;;5.20;4.70;;;;;;;21.17;39.35;96806.11;1735091;81;20897;-62
2022/01/05 02:39:33;;;;;;;5.78;5.28;;;;;;;21.17;39.27;96806.11;1706988;82;21501;-62
2022/01/05 02:42:00;;;;;;;5.60;5.10;;;;;;;21.22;39.15;96824.92;1745071;81;21446;-62
2022/01/05 02:44:26;;;;;;;6.87;5.75;;;;;;;21.28;39.08;96825.05;1729025;81;21151;-63
2022/01/05 02:46:52;;;;;;;6.45;5.00;;;;;;;21.27;39.05;96824.27;1734086;80;20978;-61
2022/01/05 02:49:19;;;;;;;5.33;4.83;;;;;;;21.29;39.04;96819.36;1772850;78;21441;-63
2022/01/05 02:51:47;;;;;;;5.50;5.00;;;;;;;21.35;38.90;96820.05;1773257;78;20991;-63
2022/01/05 02:54:13;;;;;;;6.87;5.50;;;;;;;21.42;38.79;96840.72;1766891;78;21010;-62
2022/01/05 02:56:40;;;;;;;5.37;4.87;;;;;;;21.46;38.78;96841.70;1765261;78;21149;-62
2022/01/05 02:59:06;;;;;;;12.63;8.48;;;;;;;21.43;38.80;96847.16;1761730;80;21003;-62
2022/01/05 03:01:33;;;;;;;15.80;9.28;;;;;;;21.42;38.79;96863.70;1765442;78;21566;-63
2022/01/05 03:04:00;;;;;;;8.75;7.10;;;;;;;21.61;38.56;96859.52;1732331;80;20978;-62
2022/01/05 03:06:26;;;;;;;5.87;5.30;;;;;;;21.60;38.48;96854.66;1771240;78;21036;-62
2022/01/05 03:08:53;;;;;;;5.33;4.83;;;;;;;21.65;38.42;96872.13;1773302;80;23428;-62
2022/01/05 03:11:21;;;;;;;6.42;5.83;;;;;;;21.67;38.31;96867.21;1769104;78;20836;-62
2022/01/05 03:13:49;;;;;;;5.75;5.25;;;;;;;21.68;38.29;96859.36;1728924;81;21574;-62
2022/01/05 03:16:15;;;;;;;6.58;5.78;;;;;;;21.71;38.20;96852.53;1755390;78;21012;-63
2022/01/05 03:18:42;;;;;;;7.40;5.90;;;;;;;21.77;38.14;96855.39;1756542;78;21682;-63
2022/01/05 03:21:08;;;;;;;5.35;4.85;;;;;;;21.80;38.05;96861.52;1765645;78;21146;-64
2022/01/05 03:23:35;;;;;;;5.62;5.12;;;;;;;21.80;38.02;96863.68;1764611;78;20975;-62
2022/01/05 03:26:01;;;;;;;5.87;5.35;;;;;;;21.99;37.73;96869.78;1760695;78;21042;-63
2022/01/05 03:28:28;;;;;;;6.47;5.87;;;;;;;21.99;37.65;96862.20;1768470;79;21566;-63
2022/01/05 03:30:55;;;;;;;5.97;5.37;;;;;;;21.88;37.84;96853.52;1764505;78;21079;-62
2022/01/05 03:33:22;;;;;;;5.30;4.80;;;;;;;21.85;37.93;96864.91;1762311;78;21094;-62
2022/01/05 03:35:48;;;;;;;5.67;5.12;;;;;;;21.82;37.99;96870.93;1775833;79;20987;-63
2022/01/05 03:38:16;;;;;;;5.87;5.28;;;;;;;21.72;38.09;96864.39;1782156;79;21011;-64
2022/01/05 03:40:44;;;;;;;5.70;5.15;;;;;;;21.63;38.25;96870.29;1781362;79;20970;-64
2022/01/05 03:43:12;;;;;;;5.42;4.92;;;;;;;21.61;38.29;96874.41;1790379;79;21513;-64
2022/01/05 03:45:38;;;;;;;5.62;5.12;;;;;;;21.64;38.31;96893.52;1781479;79;21111;-64
2022/01/05 03:48:07;;;;;;;5.55;4.60;;;;;;;21.73;38.23;96886.30;1782360;79;21048;-62
2022/01/05 03:50:34;;;;;;;5.33;4.83;;;;;;;21.73;38.26;96897.67;1782656;79;20998;-63
2022/01/05 03:53:00;;;;;;;5.10;4.50;;;;;;;21.67;38.34;96899.67;1777400;79;21047;-63
2022/01/05 03:55:26;;;;;;;6.22;5.47;;;;;;;21.67;38.41;96913.75;1783765;79;21055;-63
2022/01/05 03:57:53;;;;;;;4.62;4.22;;;;;;;21.66;38.44;96915.68;1780533;79;21153;-64
2022/01/05 04:00:19;;;;;;;5.65;5.05;;;;;;;21.59;38.60;96917.97;1784370;79;20935;-63
2022/01/05 04:02:46;;;;;;;5.75;5.17;;;;;;;21.62;38.62;96932.25;1742578;81;21505;-62
2022/01/05 04:05:12;;;;;;;9.90;5.17;;;;;;;21.72;38.48;96926.62;1750858;80;21077;-62
2022/01/05 04:07:39;;;;;;;5.47;4.97;;;;;;;21.79;38.44;96921.63;1746641;81;20968;-62
2022/01/05 04:10:06;;;;;;;6.28;4.37;;;;;;;21.71;38.52;96920.17;1753256;81;21512;-62
2022/01/05 04:12:32;;;;;;;5.25;4.28;;;;;;;21.60;38.71;96927.70;1757079;80;20948;-62
2022/01/05 04:14:59;;;;;;;4.50;3.58;;;;;;;21.46;38.99;96924.99;1737613;82;21426;-62
2022/01/05 04:17:27;;;;;;;4.20;3.60;;;;;;;21.42;39.14;96928.61;1735807;82;20891;-62
2022/01/05 04:19:54;;;;;;;4.33;3.92;;;;;;;21.46;39.15;96924.99;1733877;82;20978;-62
2022/01/05 04:22:20;;;;;;;4.45;3.80;;;;;;;21.45;39.20;96932.88;1730121;82;21220;-62
2022/01/05 04:24:48;;;;;;;5.55;4.95;;;;;;;21.41;39.27;96930.50;1729780;82;21014;-62
2022/01/05 04:27:15;;;;;;;6.12;4.20;;;;;;;21.43;39.28;96942.39;1725029;82;21565;-62
2022/01/05 04:29:42;;;;;;;8.20;4.40;;;;;;;21.51;39.16;96949.78;1729673;82;21163;-62
2022/01/05 04:32:09;;;;;;;4.80;4.40;;;;;;;21.50;39.21;96951.70;1739844;81;20895;-62
2022/01/05 04:34:36;;;;;;;3.98;3.58;;;;;;;21.47;39.24;96962.31;1758349;80;21815;-62
2022/01/05 04:37:04;;;;;;;5.30;4.37;;;;;;;21.42;39.27;96972.69;1753830;80;21007;-63
2022/01/05 04:39:31;;;;;;;6.03;4.50;;;;;;;21.32;39.34;96968.83;1772637;80;21493;-63
2022/01/05 04:41:59;;;;;;;4.95;4.17;;;;;;;21.25;39.42;96978.40;1760203;80;20904;-62
2022/01/05 04:44:25;;;;;;;4.85;4.28;;;;;;;21.19;39.41;96986.38;1754153;81;20900;-62
2022/01/05 04:46:52;;;;;;;6.87;3.95;;;;;;;21.22;39.33;96993.89;1749250;81;21101;-62
2022/01/05 04:49:18;;;;;;;4.67;4.12;;;;;;;21.18;39.29;97005.84;1760924;81;21489;-63
2022/01/05 04:51:45;;;;;;;5.15;4.35;;;;;;;21.20;39.14;97004.98;1756582;81;21013;-63
2022/01/05 04:54:11;;;;;;;4.45;3.77;;;;;;;21.15;39.17;97011.03;1749618;81;20859;-62
2022/01/05 04:56:37;;;;;;;4.20;3.72;;;;;;;21.09;39.29;97025.17;1755981;79;21031;-63
2022/01/05 04:59:04;;;;;;;5.47;4.33;;;;;;;21.08;39.33;97030.89;1762976;81;21785;-62
2022/01/05 05:01:30;;;;;;;4.80;4.35;;;;;;;21.04;39.41;97034.69;1755921;81;20958;-63
2022/01/05 05:03:56;;;;;;;5.40;4.90;;;;;;;21.08;39.43;97036.30;1763199;81;21448;-62
2022/01/05 05:06:23;;;;;;;4.87;4.47;;;;;;;21.18;39.23;97045.04;1769560;81;20951;-63
2022/01/05 05:08:50;;;;;;;5.10;4.60;;;;;;;21.10;39.25;97050.31;1767578;81;21026;-63
2022/01/05 05:11:16;;;;;;;4.22;3.83;;;;;;;21.02;39.35;97057.16;1763256;81;21986;-62
2022/01/05 05:13:43;;;;;;;4.28;3.87;;;;;;;21.06;39.28;97063.63;1761638;79;20955;-63
2022/01/05 05:16:09;;;;;;;3.90;3.50;;;;;;;21.11;39.17;97054.09;1754835;81;20856;-63
2022/01/05 05:18:36;;;;;;;4.20;3.77;;;;;;;21.13;39.04;97064.59;1760084;80;20987;-62
2022/01/05 05:21:04;;;;;;;5.60;3.42;;;;;;;21.13;38.93;97078.91;1756974;81;20931;-61
2022/01/05 05:23:30;;;;;;;4.22;3.83;;;;;;;21.17;38.74;97088.03;1765121;81;22943;-62
2022/01/05 05:25:56;;;;;;;4.03;3.72;;;;;;;21.18;38.50;97088.84;1765896;80;20875;-63
2022/01/05 05:28:22;;;;;;;4.72;4.15;;;;;;;21.12;38.35;97091.39;1759904;79;20970;-61
2022/01/05 05:30:49;;;;;;;4.70;4.25;;;;;;;21.19;38.04;97097.21;1759160;81;20943;-61
2022/01/05 05:33:16;;;;;;;4.28;3.87;;;;;;;21.23;37.58;97103.08;1758770;81;21627;-62
2022/01/05 05:35:42;;;;;;;4.12;3.72;;;;;;;21.02;37.57;97106.36;1773731;79;21147;-61
2022/01/05 05:38:11;;;;;;;4.90;4.40;;;;;;;20.88;37.50;97122.53;1800107;79;20895;-62
2022/01/05 05:40:38;;;;;;;5.03;4.50;;;;;;;20.82;37.36;97127.20;1786878;79;20956;-61
2022/01/05 05:43:05;;;;;;;6.55;4.35;;;;;;;20.80;37.22;97114.53;1786378;79;21072;-61
2022/01/05 05:45:32;;;;;;;4.85;4.00;;;;;;;20.83;37.00;97119.91;1786665;79;20966;-61
2022/01/05 05:47:59;;;;;;;5.03;3.83;;;;;;;20.78;36.97;97116.70;1801294;79;21146;-60
2022/01/05 05:50:25;;;;;;;4.70;4.22;;;;;;;20.81;36.87;97114.77;1794635;79;21021;-61
2022/01/05 05:52:51;;;;;;;4.95;4.10;;;;;;;20.98;36.51;97115.62;1793194;79;20950;-61
2022/01/05 05:55:18;;;;;;;5.35;4.42;;;;;;;20.88;36.56;97126.01;1789583;79;21011;-62
2022/01/05 05:57:44;;;;;;;4.95;4.15;;;;;;;20.80;36.56;97116.43;1778341;79;20998;-62
2022/01/05 06:00:12;;;;;;;4.67;4.00;;;;;;;20.80;36.53;97129.94;1792259;79;21095;-63
2022/01/05 06:02:39;;;;;;;5.30;4.10;;;;;;;20.86;36.39;97136.31;1791585;79;20872;-63
2022/01/05 06:05:06;;;;;;;5.67;4.85;;;;;;;20.72;36.51;97140.86;1797353;79;20966;-63
2022/01/05 06:07:34;;;;;;;6.40;5.80;;;;;;;20.58;36.71;97154.80;1762863;81;20983;-62
2022/01/05 06:10:00;;;;;;;5.92;5.30;;;;;;;20.53;36.81;97164.33;1757176;81;20915;-62
2022/01/05 06:12:27;;;;;;;5.33;4.83;;;;;;;20.55;36.77;97170.23;1755486;80;22118;-67
2022/01/05 06:14:54;;;;;;;5.75;5.20;;;;;;;20.62;36.60;97184.75;1754393;81;20938;-71
2022/01/05 06:17:20;;;;;;;5.80;4.92;;;;;;;20.76;36.34;97204.55;1726944;82;21038;-61
2022/01/05 06:19:47;;;;;;;6.28;4.95;;;;;;;20.75;36.29;97203.73;1756391;81;21588;-62
2022/01/05 06:22:13;;;;;;;4.80;4.40;;;;;;;20.87;36.08;97201.98;1763037;81;20939;-62
2022/01/05 06:24:40;;;;;;;5.17;4.72;;;;;;;20.79;36.09;97212.89;1740320;81;21165;-62
2022/01/05 06:27:09;;;;;;;5.10;4.15;;;;;;;20.77;36.08;97221.84;1742516;81;21661;-61
2022/01/05 06:29:38;;;;;;;5.08;4.58;;;;;;;20.73;36.00;97224.84;1725792;82;21503;-62
2022/01/05 06:32:06;;;;;;;4.65;4.15;;;;;;;20.75;35.93;97234.80;1749623;81;20939;-62
2022/01/05 06:34:33;;;;;;;4.25;3.90;;;;;;;20.80;35.75;97238.02;1755134;81;20923;-62
2022/01/05 06:37:00;;;;;;;4.20;3.80;;;;;;;20.77;35.68;97252.91;1718487;82;21230;-62
2022/01/05 06:39:26;;;;;;;3.70;3.40;;;;;;;20.57;35.88;97260.45;1758117;81;21044;-63
2022/01/05 06:41:52;;;;;;;4.20;3.80;;;;;;;20.35;36.22;97267.69;1729716;80;21616;-62
2022/01/05 06:44:20;;;;;;;4.42;3.77;;;;;;;20.33;36.24;97261.20;1754949;81;21050;-64
2022/01/05 06:46:47;;;;;;;4.58;3.85;;;;;;;20.57;35.82;97265.27;1762487;80;20943;-62
2022/01/05 06:49:13;;;;;;;3.92;3.62;;;;;;;20.67;35.64;97271.94;1726885;82;21157;-61
2022/01/05 06:51:40;;;;;;;4.40;4.00;;;;;;;20.67;35.58;97273.30;1761338;81;21402;-62
2022/01/05 06:54:06;;;;;;;5.83;4.55;;;;;;;20.67;35.50;97290.85;1737671;80;20940;-62
2022/01/05 06:56:33;;;;;;;4.62;4.22;;;;;;;20.51;35.70;97297.50;1763044;81;21082;-62
2022/01/05 06:58:59;;;;;;;5.33;4.65;;;;;;;20.55;35.66;97296.36;1754066;80;20895;-62
2022/01/05 07:01:25;;;;;;;4.75;4.25;;;;;;;20.37;35.88;97298.44;1756393;81;22269;-62
2022/01/05 07:03:52;;;;;;;5.83;5.22;;;;;;;20.29;35.98;97299.87;1733131;80;20958;-61
2022/01/05 07:06:18;;;;;;;6.28;5.35;;;;;;;20.25;36.04;97289.39;1787701;79;21058;-63
2022/01/05 07:08:44;;;;;;;6.72;4.95;;;;;;;20.18;36.19;97279.42;1800088;79;21060;-62
2022/01/05 07:11:11;;;;;;;5.78;5.10;;;;;;;20.17;36.20;97284.03;1789615;79;20915;-63
2022/01/05 07:13:37;;;;;;;6.05;4.97;;;;;;;20.21;36.17;97293.70;1762826;81;23340;-62
2022/01/05 07:16:04;;;;;;;6.95;5.10;;;;;;;20.23;36.19;97290.20;1758810;81;20946;-62
2022/01/05 07:18:31;;;;;;;6.53;5.03;;;;;;;20.19;36.26;97281.04;1736058;80;20951;-63
2022/01/05 07:20:57;;;;;;;6.58;5.87;;;;;;;20.20;36.32;97279.96;1752557;81;21047;-62
2022/01/05 07:23:24;;;;;;;6.75;6.15;;;;;;;20.14;36.41;97271.64;1748574;81;21007;-62
2022/01/05 07:25:50;;;;;;;6.45;5.85;;;;;;;20.20;36.32;97267.81;1726322;82;21880;-63
2022/01/05 07:28:17;;;;;;;6.53;5.92;;;;;;;20.27;36.24;97285.86;1738355;81;21557;-62
2022/01/05 07:30:43;;;;;;;6.95;4.87;;;;;;;20.27;36.24;97288.55;1724990;82;21053;-62
2022/01/05 07:33:10;;;;;;;5.80;5.30;;;;;;;20.27;36.29;97298.81;1721734;82;20956;-62
2022/01/05 07:35:36;;;;;;;5.50;5.00;;;;;;;20.47;36.08;97307.79;1744351;81;20923;-63
2022/01/05 07:38:03;;;;;;;6.03;5.53;;;;;;;20.65;35.83;97311.92;1742190;81;22299;-64
2022/01/05 07:40:30;;;;;;;5.50;5.00;;;;;;;20.81;35.67;97309.31;1727051;81;21023;-62
2022/01/05 07:42:56;;;;;;;5.97;5.45;;;;;;;20.97;35.48;97311.84;1761296;80;20982;-61
2022/01/05 07:45:22;;;;;;;8.53;6.33;;;;;;;21.04;35.29;97317.72;1745088;81;21127;-62
2022/01/05 07:47:49;;;;;;;9.85;8.35;;;;;;;21.07;35.18;97319.30;1740136;81;21026;-62
2022/01/05 07:50:15;;;;;;;17.15;12.45;;;;;;;21.01;35.25;97320.99;1751119;81;21106;-61
2022/01/05 07:52:45;;;;;;;17.65;13.58;;;;;;;20.88;35.38;97327.33;1750714;81;21629;-63
2022/01/05 07:55:11;;;;;;;22.13;15.55;;;;;;;20.85;35.46;97316.31;1750312;81;20899;-63
2022/01/05 07:57:38;;;;;;;20.60;16.07;;;;;;;20.98;35.26;97325.08;1744025;81;21021;-63
2022/01/05 08:00:07;;;;;;;16.07;14.38;;;;;;;20.90;35.30;97329.22;1792038;79;20916;-62
2022/01/05 08:02:34;;;;;;;17.67;13.35;;;;;;;20.85;35.40;97331.17;1792212;79;21124;-63
2022/01/05 08:05:00;;;;;;;17.75;12.15;;;;;;;20.73;35.58;97327.50;1774401;79;21681;-62
2022/01/05 08:07:27;;;;;;;10.85;9.75;;;;;;;20.63;35.75;97332.20;1798582;79;20939;-62
2022/01/05 08:09:53;;;;;;;11.78;9.75;;;;;;;20.63;35.82;97342.47;1758660;80;20951;-62
2022/01/05 08:12:19;;;;;;;15.08;9.08;;;;;;;20.56;35.87;97341.20;1757672;80;22202;-63
2022/01/05 08:14:45;;;;;;;10.68;9.03;;;;;;;20.52;35.98;97344.23;1744209;80;21149;-63
2022/01/05 08:17:12;;;;;;;10.63;7.92;;;;;;;20.54;35.97;97356.36;1758132;81;21010;-63
2022/01/05 08:19:38;;;;;;;8.78;7.87;;;;;;;20.48;35.96;97356.67;1746585;80;20900;-62
2022/01/05 08:22:05;;;;;;;9.03;8.23;;;;;;;20.40;36.03;97350.53;1717427;82;21506;-63
2022/01/05 08:24:31;;;;;;;10.23;8.83;;;;;;;20.34;36.16;97343.02;1761831;81;20979;-62
2022/01/05 08:26:58;;;;;;;14.47;9.15;;;;;;;20.25;36.15;97356.88;1758577;80;21137;-62
2022/01/05 08:29:24;;;;;;;11.63;9.65;;;;;;;20.19;36.19;97364.72;1756248;81;21485;-62
2022/01/05 08:31:50;;;;;;;13.90;10.13;;;;;;;20.09;36.36;97370.20;1727821;82;21649;-61
2022/01/05 08:34:17;;;;;;;13.25;11.18;;;;;;;20.12;36.28;97373.16;1736189;81;21058;-62
2022/01/05 08:36:43;;;;;;;12.00;10.53;;;;;;;20.06;36.23;97374.27;1741525;81;21493;-62
2022/01/05 08:39:10;;;;;;;11.73;10.45;;;;;;;20.04;36.29;97380.50;1760420;81;21123;-62
2022/01/05 08:41:36;;;;;;;10.75;8.50;;;;;;;19.95;36.31;97384.05;1756908;80;20924;-62
2022/01/05 08:44:03;;;;;;;7.42;6.72;;;;;;;19.89;36.41;97379.80;1722971;81;21149;-62
2022/01/05 08:46:29;;;;;;;7.25;6.53;;;;;;;19.86;36.48;97387.09;1720531;82;21039;-63
2022/01/05 08:48:56;;;;;;;7.83;6.25;;;;;;;19.86;36.44;97384.40;1753291;81;20983;-62
2022/01/05 08:51:23;;;;;;;7.12;6.42;;;;;;;19.83;36.41;97372.27;1751594;80;23359;-63
2022/01/05 08:53:51;;;;;;;7.70;6.90;;;;;;;20.01;36.20;97375.66;1745893;81;21453;-61
2022/01/05 08:56:18;;;;;;;9.10;8.18;;;;;;;19.99;36.19;97374.33;1743907;81;20962;-62
2022/01/05 08:58:44;;;;;;;8.40;7.50;;;;;;;19.98;36.18;97368.12;1744459;81;21532;-62
2022/01/05 09:01:12;;;;;;;9.58;8.10;;;;;;;20.05;36.06;97361.84;1734886;81;21046;-63
2022/01/05 09:03:38;;;;;;;8.53;7.65;;;;;;;20.07;36.04;97361.59;1751314;81;22099;-61
2022/01/05 09:06:06;;;;;;;10.45;9.38;;;;;;;20.08;35.95;97366.69;1745052;81;20978;-61
2022/01/05 09:08:35;;;;;;;10.48;8.80;;;;;;;20.01;36.09;97362.70;1750526;81;20986;-61
2022/01/05 09:11:02;;;;;;;9.88;8.88;;;;;;;20.02;36.15;97357.58;1748926;81;21008;-62
2022/01/05 09:13:30;;;;;;;10.10;9.05;;;;;;;20.07;36.12;97360.23;1750929;81;20994;-63
2022/01/05 09:15:57;;;;;;;13.18;9.08;;;;;;;20.15;36.12;97357.72;1750280;81;21150;-61
2022/01/05 09:18:24;;;;;;;9.10;8.03;;;;;;;20.41;35.84;97349.45;1791451;79;20884;-62
2022/01/05 09:20:52;;;;;;;7.72;6.92;;;;;;;20.56;35.67;97357.41;1789656;79;21516;-61
2022/01/05 09:23:19;;;;;;;7.87;7.08;;;;;;;20.69;35.57;97374.30;1791447;79;20967;-62
2022/01/05 09:25:45;;;;;;;9.15;7.60;;;;;;;20.80;35.35;97373.11;1756727;80;21524;-61
2022/01/05 09:28:11;;;;;;;9.68;8.63;;;;;;;20.89;35.04;97374.89;1750155;81;21055;-62
2022/01/05 09:30:38;;;;;;;13.98;10.10;;;;;;;20.69;35.05;97380.52;1739033;81;20927;-62
2022/01/05 09:33:05;;;;;;;13.18;10.48;;;;;;;20.56;35.22;97381.17;1800052;79;20923;-62
2022/01/05 09:35:34;;;;;;;12.15;10.88;;;;;;;20.54;35.25;97372.56;1794718;79;21083;-63
2022/01/05 09:43:15;;;;;;;14.75;12.30;;;;;;;20.50;35.39;97364.75;1799149;79;20884;-63
2022/01/05 09:45:59;;;;;;;12.85;10.82;;;;;;;20.47;35.32;97376.11;1781813;79;20986;-62
2022/01/05 09:48:46;;;;;;;12.23;9.78;;;;;;;20.45;35.39;97381.00;1794295;79;20961;-62
2022/01/05 09:51:14;;;;;;;13.15;10.25;;;;;;;20.42;35.35;97379.41;1758705;79;21094;-61
2022/01/05 09:53:40;;;;;;;11.78;9.80;;;;;;;20.36;35.43;97383.25;1788879;79;21149;-62
2022/01/05 09:56:07;;;;;;;11.08;9.68;;;;;;;20.46;35.38;97377.77;1745102;81;20925;-63
2022/01/05 09:58:35;;;;;;;9.85;8.25;;;;;;;20.60;35.30;97378.16;1754808;80;20924;-62
2022/01/05 10:01:01;;;;;;;13.13;9.73;;;;;;;20.68;35.22;97377.54;1753383;81;20948;-62
2022/01/05 10:03:27;;;;;;;9.35;8.45;;;;;;;20.78;35.13;97368.52;1749402;81;21532;-62
2022/01/05 10:05:54;;;;;;;8.68;7.83;;;;;;;20.79;35.18;97377.70;1742981;80;21145;-62
2022/01/05 10:08:20;;;;;;;8.93;8.03;;;;;;;20.87;35.04;97379.78;1778393;79;20981;-61
2022/01/05 10:10:48;;;;;;;9.68;8.73;;;;;;;20.99;34.61;97388.83;1788513;79;20920;-63
2022/01/05 10:13:16;;;;;;;9.35;8.50;;;;;;;20.97;34.51;97392.38;1753162;81;20940;-62
2022/01/05 10:15:42;;;;;;;8.55;7.75;;;;;;;20.94;34.34;97378.89;1747724;80;21339;-69
2022/01/05 10:18:13;;;;;;;7.30;6.62;;;;;;;21.10;34.20;97378.20;1764080;81;21147;-65
2022/01/05 10:21:01;;;;;;;7.10;6.40;;;;;;;21.07;34.22;97368.50;1730292;80;20940;-61
2022/01/05 10:23:41;;;;;;;7.22;6.42;;;;;;;21.01;34.21;97369.64;1745874;81;21020;-61
2022/01/05 10:26:29;;;;;;;7.22;6.53;;;;;;;20.94;34.14;97376.19;1737921;82;20919;-61
2022/01/05 10:29:04;;;;;;;8.28;6.12;;;;;;;20.93;33.99;97367.81;1724034;82;20951;-60
2022/01/05 10:31:38;;;;;;;9.43;5.53;;;;;;;20.73;34.23;97368.03;1734232;82;21130;-63
2022/01/05 10:34:18;;;;;;;5.45;4.92;;;;;;;20.66;34.25;97363.52;1736303;82;21481;-63
2022/01/05 10:36:48;;;;;;;6.87;5.05;;;;;;;20.53;34.41;97369.59;1741996;82;20988;-62
2022/01/05 10:39:17;;;;;;;6.10;5.50;;;;;;;20.53;34.40;97368.77;1723447;82;21034;-62
2022/01/05 10:41:47;;;;;;;9.38;5.47;;;;;;;20.48;34.50;97372.88;1734526;82;20947;-62
2022/01/05 10:44:19;;;;;;;8.93;5.60;;;;;;;20.46;34.55;97375.88;1729789;82;21126;-60
2022/01/05 10:46:52;;;;;;;7.42;6.00;;;;;;;20.48;34.60;97367.47;1732000;81;21015;-62
2022/01/05 10:49:30;;;;;;;10.63;7.60;;;;;;;20.46;34.60;97366.96;1742415;82;21035;-61
2022/01/05 10:52:00;;;;;;;6.65;5.22;;;;;;;20.37;34.71;97364.59;1741939;82;21006;-62
2022/01/05 10:54:29;;;;;;;6.25;5.35;;;;;;;20.25;34.87;97363.63;1739313;82;21005;-63
2022/01/05 10:57:08;;;;;;;5.10;4.60;;;;;;;20.19;34.91;97360.13;1745043;82;21138;-62
2022/01/05 10:59:38;;;;;;;6.40;5.33;;;;;;;20.00;35.22;97351.63;1737065;82;20955;-63
2022/01/05 11:02:30;;;;;;;6.90;5.55;;;;;;;19.95;35.34;97344.39;1739998;82;21002;-62
2022/01/05 11:05:14;;;;;;;6.87;5.35;;;;;;;19.84;35.59;97344.19;1794994;79;21509;-62
2022/01/05 11:07:42;;;;;;;6.20;5.60;;;;;;;19.67;35.77;97340.55;1792526;79;20943;-65
2022/01/05 11:10:13;;;;;;;5.97;5.10;;;;;;;19.58;35.97;97332.77;1791852;79;21146;-64
2022/01/05 11:12:45;;;;;;;8.88;5.78;;;;;;;19.49;36.49;97339.84;1764896;81;20880;-62
2022/01/05 11:15:27;;;;;;;5.83;4.95;;;;;;;19.53;36.31;97338.73;1752580;79;20938;-61
2022/01/05 11:18:21;;;;;;;6.65;5.85;;;;;;;19.56;36.26;97339.52;1728068;81;21501;-63
2022/01/05 11:20:58;;;;;;;5.72;5.17;;;;;;;19.54;36.29;97334.95;1757619;81;20946;-62
2022/01/05 11:23:26;;;;;;;5.95;4.92;;;;;;;19.48;36.38;97334.72;1760550;81;21156;-61
2022/01/05 11:25:55;;;;;;;7.83;4.75;;;;;;;19.42;36.34;97335.84;1761955;81;20966;-69
2022/01/05 11:28:23;;;;;;;4.58;4.17;;;;;;;19.25;36.62;97336.16;1760477;81;21035;-64
2022/01/05 11:30:51;;;;;;;4.53;4.12;;;;;;;19.14;36.73;97337.28;1764302;81;21019;-63
2022/01/05 11:33:18;;;;;;;5.58;5.00;;;;;;;19.07;36.89;97338.94;1761660;81;20987;-65
2022/01/05 11:35:45;;;;;;;5.50;4.83;;;;;;;19.15;36.98;97340.78;1760397;81;21155;-63
2022/01/05 11:38:11;;;;;;;8.10;6.62;;;;;;;19.30;36.89;97344.22;1732070;82;20924;-62